sensor_id;sensor_type;location;lat;lon;timestamp;temperature;humidity
78694;SHT31;68029;51.978;5.646;2023-05-16T00:01:10;13.1;61.1
78694;SHT31;68029;51.978;5.646;2023-05-16T00:03:43;13.1;61.3
78694;SHT31;68029;51.978;5.646;2023-05-16T00:06:13;13.1;61.2
78694;SHT31;68029;51.978;5.646;2023-05-16T00:08:43;13.1;61.3
78694;SHT31;68029;51.978;5.646;2023-05-16T00:11:13;13.1;60.8
78694;SHT31;68029;51.978;5.646;2023-05-16T00:13:42;13.1;60.3
78694;SHT31;68029;51.978;5.646;2023-05-16T00:16:13;13.1;60.3
78694;SHT31;68029;51.978;5.646;2023-05-16T00:18:42;13.1;60.8
78694;SHT31;68029;51.978;5.646;2023-05-16T00:21:14;13.1;60.6
78694;SHT31;68029;51.978;5.646;2023-05-16T00:23:43;13.1;60.8
78694;SHT31;68029;51.978;5.646;2023-05-16T00:26:13;13.1;60.8
78694;SHT31;68029;51.978;5.646;2023-05-16T00:28:42;13.1;61.3
78694;SHT31;68029;51.978;5.646;2023-05-16T00:31:12;13.1;61.1
78694;SHT31;68029;51.978;5.646;2023-05-16T00:33:42;13.1;60.7
78694;SHT31;68029;51.978;5.646;2023-05-16T00:36:12;13.1;61.0
78694;SHT31;68029;51.978;5.646;2023-05-16T00:38:41;13.0;60.7
78694;SHT31;68029;51.978;5.646;2023-05-16T00:41:11;13.0;60.9
78694;SHT31;68029;51.978;5.646;2023-05-16T00:43:40;13.0;62.0
78694;SHT31;68029;51.978;5.646;2023-05-16T00:46:10;13.0;62.6
78694;SHT31;68029;51.978;5.646;2023-05-16T00:48:39;12.9;62.3
78694;SHT31;68029;51.978;5.646;2023-05-16T00:51:11;12.9;62.0
78694;SHT31;68029;51.978;5.646;2023-05-16T00:53:41;12.9;61.8
78694;SHT31;68029;51.978;5.646;2023-05-16T00:56:13;12.8;62.1
78694;SHT31;68029;51.978;5.646;2023-05-16T00:58:43;12.8;61.6
78694;SHT31;68029;51.978;5.646;2023-05-16T01:01:13;12.8;61.9
78694;SHT31;68029;51.978;5.646;2023-05-16T01:03:42;12.7;62.2
78694;SHT31;68029;51.978;5.646;2023-05-16T01:06:14;12.7;61.7
78694;SHT31;68029;51.978;5.646;2023-05-16T01:08:44;12.7;62.0
78694;SHT31;68029;51.978;5.646;2023-05-16T01:11:24;12.6;62.4
78694;SHT31;68029;51.978;5.646;2023-05-16T01:14:02;12.6;62.0
78694;SHT31;68029;51.978;5.646;2023-05-16T01:16:41;12.5;61.8
78694;SHT31;68029;51.978;5.646;2023-05-16T01:19:25;12.5;62.2
78694;SHT31;68029;51.978;5.646;2023-05-16T01:22:02;12.4;62.3
78694;SHT31;68029;51.978;5.646;2023-05-16T01:24:42;12.4;62.1
78694;SHT31;68029;51.978;5.646;2023-05-16T01:27:16;12.4;62.4
78694;SHT31;68029;51.978;5.646;2023-05-16T01:29:46;12.3;62.1
78694;SHT31;68029;51.978;5.646;2023-05-16T01:32:15;12.3;62.1
78694;SHT31;68029;51.978;5.646;2023-05-16T01:34:46;12.2;62.5
78694;SHT31;68029;51.978;5.646;2023-05-16T01:37:23;12.2;62.0
78694;SHT31;68029;51.978;5.646;2023-05-16T01:40:01;12.2;63.1
78694;SHT31;68029;51.978;5.646;2023-05-16T01:42:38;12.2;62.3
78694;SHT31;68029;51.978;5.646;2023-05-16T01:45:13;12.2;63.0
78694;SHT31;68029;51.978;5.646;2023-05-16T01:47:48;12.2;63.2
78694;SHT31;68029;51.978;5.646;2023-05-16T01:50:24;12.2;63.3
78694;SHT31;68029;51.978;5.646;2023-05-16T01:52:58;12.2;63.1
78694;SHT31;68029;51.978;5.646;2023-05-16T01:55:36;12.2;64.2
78694;SHT31;68029;51.978;5.646;2023-05-16T01:58:11;12.2;62.9
78694;SHT31;68029;51.978;5.646;2023-05-16T02:00:42;12.2;64.1
78694;SHT31;68029;51.978;5.646;2023-05-16T02:03:11;12.3;64.2
78694;SHT31;68029;51.978;5.646;2023-05-16T02:05:41;12.3;64.3
78694;SHT31;68029;51.978;5.646;2023-05-16T02:08:11;12.3;64.0
78694;SHT31;68029;51.978;5.646;2023-05-16T02:10:42;12.3;63.7
78694;SHT31;68029;51.978;5.646;2023-05-16T02:13:11;12.4;63.1
78694;SHT31;68029;51.978;5.646;2023-05-16T02:15:41;12.4;63.2
78694;SHT31;68029;51.978;5.646;2023-05-16T02:18:11;12.4;63.5
78694;SHT31;68029;51.978;5.646;2023-05-16T02:20:40;12.4;64.0
78694;SHT31;68029;51.978;5.646;2023-05-16T02:23:10;12.4;64.1
78694;SHT31;68029;51.978;5.646;2023-05-16T02:25:40;12.4;63.9
78694;SHT31;68029;51.978;5.646;2023-05-16T02:28:11;12.4;64.1
78694;SHT31;68029;51.978;5.646;2023-05-16T02:30:41;12.4;63.8
78694;SHT31;68029;51.978;5.646;2023-05-16T02:33:11;12.4;64.5
78694;SHT31;68029;51.978;5.646;2023-05-16T02:35:40;12.4;63.8
78694;SHT31;68029;51.978;5.646;2023-05-16T02:38:10;12.4;64.0
78694;SHT31;68029;51.978;5.646;2023-05-16T02:40:43;12.4;63.7
78694;SHT31;68029;51.978;5.646;2023-05-16T02:43:13;12.4;63.1
78694;SHT31;68029;51.978;5.646;2023-05-16T02:45:43;12.3;63.6
78694;SHT31;68029;51.978;5.646;2023-05-16T02:48:13;12.3;63.3
78694;SHT31;68029;51.978;5.646;2023-05-16T02:50:42;12.3;63.3
78694;SHT31;68029;51.978;5.646;2023-05-16T02:53:12;12.3;62.7
78694;SHT31;68029;51.978;5.646;2023-05-16T02:55:42;12.3;62.8
78694;SHT31;68029;51.978;5.646;2023-05-16T02:58:12;12.3;62.6
78694;SHT31;68029;51.978;5.646;2023-05-16T03:00:41;12.3;62.4
78694;SHT31;68029;51.978;5.646;2023-05-16T03:03:11;12.2;62.3
78694;SHT31;68029;51.978;5.646;2023-05-16T03:05:41;12.2;62.4
78694;SHT31;68029;51.978;5.646;2023-05-16T03:08:10;12.2;62.8
78694;SHT31;68029;51.978;5.646;2023-05-16T03:10:40;12.1;62.4
78694;SHT31;68029;51.978;5.646;2023-05-16T03:13:09;12.1;62.4
78694;SHT31;68029;51.978;5.646;2023-05-16T03:15:39;12.1;62.2
78694;SHT31;68029;51.978;5.646;2023-05-16T03:18:09;12.0;62.3
78694;SHT31;68029;51.978;5.646;2023-05-16T03:20:41;12.0;62.7
78694;SHT31;68029;51.978;5.646;2023-05-16T03:23:10;11.9;62.6
78694;SHT31;68029;51.978;5.646;2023-05-16T03:25:40;11.9;63.3
78694;SHT31;68029;51.978;5.646;2023-05-16T03:28:12;11.8;63.5
78694;SHT31;68029;51.978;5.646;2023-05-16T03:30:44;11.8;63.2
78694;SHT31;68029;51.978;5.646;2023-05-16T03:33:16;11.7;63.0
78694;SHT31;68029;51.978;5.646;2023-05-16T03:35:46;11.6;62.8
78694;SHT31;68029;51.978;5.646;2023-05-16T03:38:16;11.6;63.3
78694;SHT31;68029;51.978;5.646;2023-05-16T03:40:46;11.6;63.3
78694;SHT31;68029;51.978;5.646;2023-05-16T03:43:15;11.5;63.3
78694;SHT31;68029;51.978;5.646;2023-05-16T03:45:45;11.5;63.1
78694;SHT31;68029;51.978;5.646;2023-05-16T03:48:14;11.4;63.3
78694;SHT31;68029;51.978;5.646;2023-05-16T03:50:44;11.4;63.5
78694;SHT31;68029;51.978;5.646;2023-05-16T03:53:14;11.3;63.9
78694;SHT31;68029;51.978;5.646;2023-05-16T03:55:43;11.3;63.5
78694;SHT31;68029;51.978;5.646;2023-05-16T03:58:13;11.2;63.4
78694;SHT31;68029;51.978;5.646;2023-05-16T04:00:43;11.2;63.8
78694;SHT31;68029;51.978;5.646;2023-05-16T04:03:13;11.2;63.7
78694;SHT31;68029;51.978;5.646;2023-05-16T04:05:42;11.1;63.9
78694;SHT31;68029;51.978;5.646;2023-05-16T04:08:12;11.1;63.7
78694;SHT31;68029;51.978;5.646;2023-05-16T04:10:42;11.1;64.1
78694;SHT31;68029;51.978;5.646;2023-05-16T04:13:12;11.0;64.1
78694;SHT31;68029;51.978;5.646;2023-05-16T04:15:43;11.0;64.3
78694;SHT31;68029;51.978;5.646;2023-05-16T04:18:12;11.0;64.2
78694;SHT31;68029;51.978;5.646;2023-05-16T04:20:43;10.9;64.2
78694;SHT31;68029;51.978;5.646;2023-05-16T04:23:14;10.9;64.4
78694;SHT31;68029;51.978;5.646;2023-05-16T04:25:43;10.9;65.1
78694;SHT31;68029;51.978;5.646;2023-05-16T04:28:13;10.9;65.2
78694;SHT31;68029;51.978;5.646;2023-05-16T04:30:42;10.9;64.9
78694;SHT31;68029;51.978;5.646;2023-05-16T04:33:13;10.8;64.7
78694;SHT31;68029;51.978;5.646;2023-05-16T04:35:43;10.8;65.2
78694;SHT31;68029;51.978;5.646;2023-05-16T04:38:12;10.8;65.0
78694;SHT31;68029;51.978;5.646;2023-05-16T04:40:42;10.8;65.2
78694;SHT31;68029;51.978;5.646;2023-05-16T04:43:12;10.8;65.4
78694;SHT31;68029;51.978;5.646;2023-05-16T04:45:41;10.8;65.6
78694;SHT31;68029;51.978;5.646;2023-05-16T04:48:13;10.8;65.8
78694;SHT31;68029;51.978;5.646;2023-05-16T04:50:43;10.8;65.2
78694;SHT31;68029;51.978;5.646;2023-05-16T04:53:13;10.8;65.6
78694;SHT31;68029;51.978;5.646;2023-05-16T04:55:43;10.8;65.5
78694;SHT31;68029;51.978;5.646;2023-05-16T04:58:13;10.8;66.0
78694;SHT31;68029;51.978;5.646;2023-05-16T05:00:44;10.8;65.7
78694;SHT31;68029;51.978;5.646;2023-05-16T05:03:14;10.8;66.2
78694;SHT31;68029;51.978;5.646;2023-05-16T05:05:44;10.9;66.6
78694;SHT31;68029;51.978;5.646;2023-05-16T05:08:15;10.9;66.1
78694;SHT31;68029;51.978;5.646;2023-05-16T05:10:44;11.0;65.8
78694;SHT31;68029;51.978;5.646;2023-05-16T05:13:14;11.0;66.1
78694;SHT31;68029;51.978;5.646;2023-05-16T05:15:44;11.1;66.5
78694;SHT31;68029;51.978;5.646;2023-05-16T05:18:13;11.2;65.8
78694;SHT31;68029;51.978;5.646;2023-05-16T05:20:44;11.2;65.2
78694;SHT31;68029;51.978;5.646;2023-05-16T05:23:14;11.3;66.6
78694;SHT31;68029;51.978;5.646;2023-05-16T05:25:43;11.3;65.7
78694;SHT31;68029;51.978;5.646;2023-05-16T05:28:13;11.4;66.0
78694;SHT31;68029;51.978;5.646;2023-05-16T05:30:43;11.4;65.9
78694;SHT31;68029;51.978;5.646;2023-05-16T05:33:15;11.5;65.6
78694;SHT31;68029;51.978;5.646;2023-05-16T05:35:45;11.6;65.9
78694;SHT31;68029;51.978;5.646;2023-05-16T05:38:15;11.7;64.9
78694;SHT31;68029;51.978;5.646;2023-05-16T05:40:44;11.8;64.8
78694;SHT31;68029;51.978;5.646;2023-05-16T05:43:14;11.9;64.3
78694;SHT31;68029;51.978;5.646;2023-05-16T05:45:44;11.9;64.0
78694;SHT31;68029;51.978;5.646;2023-05-16T05:48:13;12.1;64.1
78694;SHT31;68029;51.978;5.646;2023-05-16T05:50:43;12.2;63.4
78694;SHT31;68029;51.978;5.646;2023-05-16T05:53:13;12.3;63.3
78694;SHT31;68029;51.978;5.646;2023-05-16T05:55:43;12.5;63.5
78694;SHT31;68029;51.978;5.646;2023-05-16T05:58:13;12.6;62.5
78694;SHT31;68029;51.978;5.646;2023-05-16T06:00:44;12.8;61.8
78694;SHT31;68029;51.978;5.646;2023-05-16T06:03:14;12.9;61.7
78694;SHT31;68029;51.978;5.646;2023-05-16T06:05:43;13.1;61.2
78694;SHT31;68029;51.978;5.646;2023-05-16T06:08:13;13.3;60.5
78694;SHT31;68029;51.978;5.646;2023-05-16T06:10:42;13.4;60.1
78694;SHT31;68029;51.978;5.646;2023-05-16T06:13:12;13.5;60.0
78694;SHT31;68029;51.978;5.646;2023-05-16T06:15:42;13.7;58.8
78694;SHT31;68029;51.978;5.646;2023-05-16T06:18:13;13.9;58.5
78694;SHT31;68029;51.978;5.646;2023-05-16T06:20:43;14.0;58.9
78694;SHT31;68029;51.978;5.646;2023-05-16T06:23:12;14.2;57.7
78694;SHT31;68029;51.978;5.646;2023-05-16T06:25:42;14.3;57.0
78694;SHT31;68029;51.978;5.646;2023-05-16T06:28:12;14.5;56.8
78694;SHT31;68029;51.978;5.646;2023-05-16T06:30:41;14.6;55.7
78694;SHT31;68029;51.978;5.646;2023-05-16T06:33:11;14.8;57.0
78694;SHT31;68029;51.978;5.646;2023-05-16T06:35:41;14.9;55.6
78694;SHT31;68029;51.978;5.646;2023-05-16T06:38:10;15.1;55.4
78694;SHT31;68029;51.978;5.646;2023-05-16T06:40:40;15.2;54.1
78694;SHT31;68029;51.978;5.646;2023-05-16T06:43:12;15.4;53.7
78694;SHT31;68029;51.978;5.646;2023-05-16T06:45:45;15.6;53.1
78694;SHT31;68029;51.978;5.646;2023-05-16T06:48:14;15.7;53.8
78694;SHT31;68029;51.978;5.646;2023-05-16T06:50:46;15.9;52.0
78694;SHT31;68029;51.978;5.646;2023-05-16T06:53:15;16.0;51.9
78694;SHT31;68029;51.978;5.646;2023-05-16T06:55:46;16.1;51.9
78694;SHT31;68029;51.978;5.646;2023-05-16T06:58:15;16.3;50.5
78694;SHT31;68029;51.978;5.646;2023-05-16T07:00:45;16.4;50.8
78694;SHT31;68029;51.978;5.646;2023-05-16T07:03:14;16.5;50.9
78694;SHT31;68029;51.978;5.646;2023-05-16T07:05:45;16.6;49.9
78694;SHT31;68029;51.978;5.646;2023-05-16T07:08:14;16.7;49.3
78694;SHT31;68029;51.978;5.646;2023-05-16T07:10:45;16.8;49.4
78694;SHT31;68029;51.978;5.646;2023-05-16T07:13:15;16.9;47.6
78694;SHT31;68029;51.978;5.646;2023-05-16T07:15:44;17.1;46.9
78694;SHT31;68029;51.978;5.646;2023-05-16T07:18:14;17.2;47.3
78694;SHT31;68029;51.978;5.646;2023-05-16T07:20:44;17.2;46.7
78694;SHT31;68029;51.978;5.646;2023-05-16T07:23:15;17.3;46.1
78694;SHT31;68029;51.978;5.646;2023-05-16T07:25:44;17.3;45.3
78694;SHT31;68029;51.978;5.646;2023-05-16T07:28:14;17.4;46.2
78694;SHT31;68029;51.978;5.646;2023-05-16T07:30:44;17.4;46.6
78694;SHT31;68029;51.978;5.646;2023-05-16T07:33:15;17.5;44.1
78694;SHT31;68029;51.978;5.646;2023-05-16T07:35:45;17.6;44.0
78694;SHT31;68029;51.978;5.646;2023-05-16T07:38:14;17.6;44.0
78694;SHT31;68029;51.978;5.646;2023-05-16T07:40:44;17.6;44.9
78694;SHT31;68029;51.978;5.646;2023-05-16T07:43:13;17.7;45.0
78694;SHT31;68029;51.978;5.646;2023-05-16T07:45:45;17.9;45.7
78694;SHT31;68029;51.978;5.646;2023-05-16T07:48:14;18.1;45.5
78694;SHT31;68029;51.978;5.646;2023-05-16T07:50:44;18.3;44.0
78694;SHT31;68029;51.978;5.646;2023-05-16T07:53:14;18.5;43.5
78694;SHT31;68029;51.978;5.646;2023-05-16T07:55:44;18.8;43.9
78694;SHT31;68029;51.978;5.646;2023-05-16T07:58:14;19.0;42.0
78694;SHT31;68029;51.978;5.646;2023-05-16T08:00:44;19.2;42.3
78694;SHT31;68029;51.978;5.646;2023-05-16T08:03:14;19.4;39.4
78694;SHT31;68029;51.978;5.646;2023-05-16T08:05:44;19.5;38.3
78694;SHT31;68029;51.978;5.646;2023-05-16T08:08:15;19.7;39.1
78694;SHT31;68029;51.978;5.646;2023-05-16T08:10:45;19.8;39.3
78694;SHT31;68029;51.978;5.646;2023-05-16T08:13:15;19.9;39.4
78694;SHT31;68029;51.978;5.646;2023-05-16T08:15:45;20.1;39.9
78694;SHT31;68029;51.978;5.646;2023-05-16T08:18:15;20.3;40.2
78694;SHT31;68029;51.978;5.646;2023-05-16T08:20:44;20.5;37.6
78694;SHT31;68029;51.978;5.646;2023-05-16T08:23:14;20.7;37.4
78694;SHT31;68029;51.978;5.646;2023-05-16T08:25:43;20.7;37.2
78694;SHT31;68029;51.978;5.646;2023-05-16T08:28:13;20.7;38.2
78694;SHT31;68029;51.978;5.646;2023-05-16T08:30:43;20.5;37.5
78694;SHT31;68029;51.978;5.646;2023-05-16T08:33:12;20.2;36.2
78694;SHT31;68029;51.978;5.646;2023-05-16T08:35:43;19.8;37.6
78694;SHT31;68029;51.978;5.646;2023-05-16T08:38:15;19.5;38.5
78694;SHT31;68029;51.978;5.646;2023-05-16T08:40:47;19.2;40.4
78694;SHT31;68029;51.978;5.646;2023-05-16T08:43:17;19.1;42.8
78694;SHT31;68029;51.978;5.646;2023-05-16T08:45:46;18.9;46.1
78694;SHT31;68029;51.978;5.646;2023-05-16T08:48:23;18.8;47.3
78694;SHT31;68029;51.978;5.646;2023-05-16T08:50:54;18.6;47.6
78694;SHT31;68029;51.978;5.646;2023-05-16T08:53:31;18.5;47.5
78694;SHT31;68029;51.978;5.646;2023-05-16T08:56:06;18.5;47.4
78694;SHT31;68029;51.978;5.646;2023-05-16T08:58:39;18.4;46.1
78694;SHT31;68029;51.978;5.646;2023-05-16T09:01:09;18.4;47.4
78694;SHT31;68029;51.978;5.646;2023-05-16T09:03:39;18.4;48.1
78694;SHT31;68029;51.978;5.646;2023-05-16T09:06:11;18.6;47.3
78694;SHT31;68029;51.978;5.646;2023-05-16T09:08:41;18.8;46.1
78694;SHT31;68029;51.978;5.646;2023-05-16T09:11:12;18.9;46.6
78694;SHT31;68029;51.978;5.646;2023-05-16T09:13:42;19.2;46.7
78694;SHT31;68029;51.978;5.646;2023-05-16T09:16:13;19.4;43.5
78694;SHT31;68029;51.978;5.646;2023-05-16T09:18:45;19.7;43.2
78694;SHT31;68029;51.978;5.646;2023-05-16T09:21:16;19.9;43.4
78694;SHT31;68029;51.978;5.646;2023-05-16T09:23:48;20.1;42.5
78694;SHT31;68029;51.978;5.646;2023-05-16T09:26:18;20.3;41.9
78694;SHT31;68029;51.978;5.646;2023-05-16T09:28:52;20.5;41.0
78694;SHT31;68029;51.978;5.646;2023-05-16T09:31:26;20.6;39.8
78694;SHT31;68029;51.978;5.646;2023-05-16T09:34:01;20.6;40.4
78694;SHT31;68029;51.978;5.646;2023-05-16T09:36:32;20.7;40.1
78694;SHT31;68029;51.978;5.646;2023-05-16T09:39:07;20.7;39.5
78694;SHT31;68029;51.978;5.646;2023-05-16T09:41:38;20.7;40.6
78694;SHT31;68029;51.978;5.646;2023-05-16T09:44:08;20.6;39.5
78694;SHT31;68029;51.978;5.646;2023-05-16T09:46:37;20.5;39.0
78694;SHT31;68029;51.978;5.646;2023-05-16T09:49:10;20.3;39.5
78694;SHT31;68029;51.978;5.646;2023-05-16T09:51:41;20.3;39.6
78694;SHT31;68029;51.978;5.646;2023-05-16T09:54:12;20.3;39.6
78694;SHT31;68029;51.978;5.646;2023-05-16T09:56:51;20.3;38.5
78694;SHT31;68029;51.978;5.646;2023-05-16T09:59:22;20.4;37.8
78694;SHT31;68029;51.978;5.646;2023-05-16T10:01:52;20.4;37.4
78694;SHT31;68029;51.978;5.646;2023-05-16T10:04:23;20.4;37.6
78694;SHT31;68029;51.978;5.646;2023-05-16T10:06:54;20.5;38.0
78694;SHT31;68029;51.978;5.646;2023-05-16T10:09:26;20.6;39.8
78694;SHT31;68029;51.978;5.646;2023-05-16T10:11:57;20.8;38.8
78694;SHT31;68029;51.978;5.646;2023-05-16T10:14:34;21.0;38.3
78694;SHT31;68029;51.978;5.646;2023-05-16T10:17:06;21.3;36.2
78694;SHT31;68029;51.978;5.646;2023-05-16T10:19:38;21.6;35.7
78694;SHT31;68029;51.978;5.646;2023-05-16T10:22:12;21.8;35.0
78694;SHT31;68029;51.978;5.646;2023-05-16T10:24:53;21.8;34.5
78694;SHT31;68029;51.978;5.646;2023-05-16T10:27:26;21.9;35.3
78694;SHT31;68029;51.978;5.646;2023-05-16T10:29:56;21.9;34.5
78694;SHT31;68029;51.978;5.646;2023-05-16T10:32:27;22.0;33.9
78694;SHT31;68029;51.978;5.646;2023-05-16T10:34:59;22.1;32.1
78694;SHT31;68029;51.978;5.646;2023-05-16T10:37:31;22.2;31.6
78694;SHT31;68029;51.978;5.646;2023-05-16T10:40:04;22.4;32.0
78694;SHT31;68029;51.978;5.646;2023-05-16T10:42:35;22.5;31.0
78694;SHT31;68029;51.978;5.646;2023-05-16T10:45:15;22.6;31.6
78694;SHT31;68029;51.978;5.646;2023-05-16T10:47:52;22.5;32.0
78694;SHT31;68029;51.978;5.646;2023-05-16T10:50:39;22.4;33.5
78694;SHT31;68029;51.978;5.646;2023-05-16T10:53:18;22.1;32.9
78694;SHT31;68029;51.978;5.646;2023-05-16T10:56:08;22.0;32.2
78694;SHT31;68029;51.978;5.646;2023-05-16T10:58:46;21.8;32.6
78694;SHT31;68029;51.978;5.646;2023-05-16T11:01:20;21.6;33.5
78694;SHT31;68029;51.978;5.646;2023-05-16T11:04:04;21.4;33.2
78694;SHT31;68029;51.978;5.646;2023-05-16T11:06:42;21.2;34.8
78694;SHT31;68029;51.978;5.646;2023-05-16T11:09:20;21.2;34.5
78694;SHT31;68029;51.978;5.646;2023-05-16T11:11:58;21.2;33.0
78694;SHT31;68029;51.978;5.646;2023-05-16T11:14:37;21.3;34.7
78694;SHT31;68029;51.978;5.646;2023-05-16T11:17:11;21.4;34.4
78694;SHT31;68029;51.978;5.646;2023-05-16T11:19:43;21.6;33.7
78694;SHT31;68029;51.978;5.646;2023-05-16T11:22:24;21.8;33.1
78694;SHT31;68029;51.978;5.646;2023-05-16T11:24:58;22.0;32.0
78694;SHT31;68029;51.978;5.646;2023-05-16T11:27:30;22.1;32.4
78694;SHT31;68029;51.978;5.646;2023-05-16T11:30:10;22.2;31.6
78694;SHT31;68029;51.978;5.646;2023-05-16T11:32:38;22.2;32.0
78694;SHT31;68029;51.978;5.646;2023-05-16T11:35:10;22.1;32.5
78694;SHT31;68029;51.978;5.646;2023-05-16T11:37:42;22.0;32.8
78694;SHT31;68029;51.978;5.646;2023-05-16T11:40:13;21.9;31.8
78694;SHT31;68029;51.978;5.646;2023-05-16T11:42:45;21.8;31.5
78694;SHT31;68029;51.978;5.646;2023-05-16T11:45:17;21.7;32.1
78694;SHT31;68029;51.978;5.646;2023-05-16T11:47:48;21.6;34.4
78694;SHT31;68029;51.978;5.646;2023-05-16T11:50:20;21.5;32.7
78694;SHT31;68029;51.978;5.646;2023-05-16T11:52:51;21.3;32.2
78694;SHT31;68029;51.978;5.646;2023-05-16T11:55:27;21.1;33.2
78694;SHT31;68029;51.978;5.646;2023-05-16T11:57:59;20.9;33.5
78694;SHT31;68029;51.978;5.646;2023-05-16T12:00:31;20.7;34.4
78694;SHT31;68029;51.978;5.646;2023-05-16T12:03:02;20.4;35.0
78694;SHT31;68029;51.978;5.646;2023-05-16T12:05:34;20.2;36.3
78694;SHT31;68029;51.978;5.646;2023-05-16T12:08:04;20.1;34.3
78694;SHT31;68029;51.978;5.646;2023-05-16T12:10:34;20.0;33.5
78694;SHT31;68029;51.978;5.646;2023-05-16T12:13:06;19.8;35.1
78694;SHT31;68029;51.978;5.646;2023-05-16T12:15:35;19.7;35.5
78694;SHT31;68029;51.978;5.646;2023-05-16T12:18:05;19.7;37.7
78694;SHT31;68029;51.978;5.646;2023-05-16T12:20:36;19.6;37.2
78694;SHT31;68029;51.978;5.646;2023-05-16T12:23:09;19.6;36.4
78694;SHT31;68029;51.978;5.646;2023-05-16T12:25:45;19.5;35.3
78694;SHT31;68029;51.978;5.646;2023-05-16T12:28:15;19.5;34.9
78694;SHT31;68029;51.978;5.646;2023-05-16T12:30:45;19.5;35.6
78694;SHT31;68029;51.978;5.646;2023-05-16T12:33:15;19.4;36.1
78694;SHT31;68029;51.978;5.646;2023-05-16T12:35:46;19.3;36.1
78694;SHT31;68029;51.978;5.646;2023-05-16T12:38:18;19.2;36.6
78694;SHT31;68029;51.978;5.646;2023-05-16T12:40:48;19.1;37.9
78694;SHT31;68029;51.978;5.646;2023-05-16T12:43:20;19.0;38.0
78694;SHT31;68029;51.978;5.646;2023-05-16T12:45:51;18.9;38.7
78694;SHT31;68029;51.978;5.646;2023-05-16T12:48:22;18.8;40.0
78694;SHT31;68029;51.978;5.646;2023-05-16T12:50:52;18.7;39.9
78694;SHT31;68029;51.978;5.646;2023-05-16T12:53:22;18.6;39.1
78694;SHT31;68029;51.978;5.646;2023-05-16T12:55:52;18.5;39.3
78694;SHT31;68029;51.978;5.646;2023-05-16T12:58:22;18.4;39.9
78694;SHT31;68029;51.978;5.646;2023-05-16T13:00:52;18.3;39.8
78694;SHT31;68029;51.978;5.646;2023-05-16T13:03:23;18.2;41.7
78694;SHT31;68029;51.978;5.646;2023-05-16T13:05:52;18.1;43.6
78694;SHT31;68029;51.978;5.646;2023-05-16T13:08:22;18.0;43.6
78694;SHT31;68029;51.978;5.646;2023-05-16T13:10:52;18.0;44.3
78694;SHT31;68029;51.978;5.646;2023-05-16T13:13:22;17.9;43.8
78694;SHT31;68029;51.978;5.646;2023-05-16T13:15:52;17.9;44.7
78694;SHT31;68029;51.978;5.646;2023-05-16T13:18:22;17.9;43.8
78694;SHT31;68029;51.978;5.646;2023-05-16T13:20:51;17.9;44.5
78694;SHT31;68029;51.978;5.646;2023-05-16T13:23:21;17.9;45.8
78694;SHT31;68029;51.978;5.646;2023-05-16T13:25:50;18.0;46.1
78694;SHT31;68029;51.978;5.646;2023-05-16T13:28:20;18.2;44.6
78694;SHT31;68029;51.978;5.646;2023-05-16T13:30:50;18.5;43.6
78694;SHT31;68029;51.978;5.646;2023-05-16T13:33:19;18.7;43.1
78694;SHT31;68029;51.978;5.646;2023-05-16T13:35:51;18.9;43.9
78694;SHT31;68029;51.978;5.646;2023-05-16T13:38:21;19.0;43.1
78694;SHT31;68029;51.978;5.646;2023-05-16T13:40:51;19.1;41.6
78694;SHT31;68029;51.978;5.646;2023-05-16T13:43:20;19.1;42.5
78694;SHT31;68029;51.978;5.646;2023-05-16T13:45:50;19.2;41.2
78694;SHT31;68029;51.978;5.646;2023-05-16T13:48:22;19.2;40.8
78694;SHT31;68029;51.978;5.646;2023-05-16T13:50:52;19.2;42.1
78694;SHT31;68029;51.978;5.646;2023-05-16T13:53:22;19.1;41.8
78694;SHT31;68029;51.978;5.646;2023-05-16T13:55:52;19.1;42.3
78694;SHT31;68029;51.978;5.646;2023-05-16T13:58:22;19.1;42.3
78694;SHT31;68029;51.978;5.646;2023-05-16T14:00:53;19.0;42.7
78694;SHT31;68029;51.978;5.646;2023-05-16T14:03:23;19.0;41.7
78694;SHT31;68029;51.978;5.646;2023-05-16T14:05:52;18.9;42.0
78694;SHT31;68029;51.978;5.646;2023-05-16T14:08:22;18.9;42.2
78694;SHT31;68029;51.978;5.646;2023-05-16T14:10:52;18.7;42.5
78694;SHT31;68029;51.978;5.646;2023-05-16T14:13:23;18.6;42.0
78694;SHT31;68029;51.978;5.646;2023-05-16T14:15:52;18.5;41.8
78694;SHT31;68029;51.978;5.646;2023-05-16T14:18:22;18.4;41.7
78694;SHT31;68029;51.978;5.646;2023-05-16T14:20:52;18.3;41.9
78694;SHT31;68029;51.978;5.646;2023-05-16T14:23:22;18.2;42.4
78694;SHT31;68029;51.978;5.646;2023-05-16T14:25:53;18.1;43.0
78694;SHT31;68029;51.978;5.646;2023-05-16T14:28:23;18.1;42.6
78694;SHT31;68029;51.978;5.646;2023-05-16T14:30:52;18.1;42.1
78694;SHT31;68029;51.978;5.646;2023-05-16T14:33:22;18.1;43.0
78694;SHT31;68029;51.978;5.646;2023-05-16T14:35:52;18.1;42.3
78694;SHT31;68029;51.978;5.646;2023-05-16T14:38:21;18.0;42.2
78694;SHT31;68029;51.978;5.646;2023-05-16T14:40:51;18.0;42.4
78694;SHT31;68029;51.978;5.646;2023-05-16T14:43:21;18.0;42.2
78694;SHT31;68029;51.978;5.646;2023-05-16T14:45:50;17.9;42.9
78694;SHT31;68029;51.978;5.646;2023-05-16T14:48:20;17.9;43.4
78694;SHT31;68029;51.978;5.646;2023-05-16T14:50:49;17.8;43.2
78694;SHT31;68029;51.978;5.646;2023-05-16T14:53:19;17.8;43.5
78694;SHT31;68029;51.978;5.646;2023-05-16T14:55:50;17.8;43.8
78694;SHT31;68029;51.978;5.646;2023-05-16T14:58:19;17.8;43.5
78694;SHT31;68029;51.978;5.646;2023-05-16T15:00:50;17.8;44.1
78694;SHT31;68029;51.978;5.646;2023-05-16T15:03:19;17.8;43.4
78694;SHT31;68029;51.978;5.646;2023-05-16T15:05:49;17.8;42.9
78694;SHT31;68029;51.978;5.646;2023-05-16T15:08:19;17.7;43.0
78694;SHT31;68029;51.978;5.646;2023-05-16T15:10:50;17.7;42.8
78694;SHT31;68029;51.978;5.646;2023-05-16T15:13:20;17.7;42.4
78694;SHT31;68029;51.978;5.646;2023-05-16T15:15:49;17.7;42.5
78694;SHT31;68029;51.978;5.646;2023-05-16T15:18:19;17.7;42.8
78694;SHT31;68029;51.978;5.646;2023-05-16T15:20:51;17.7;42.6
78694;SHT31;68029;51.978;5.646;2023-05-16T15:23:21;17.7;42.9
78694;SHT31;68029;51.978;5.646;2023-05-16T15:25:51;17.6;42.9
78694;SHT31;68029;51.978;5.646;2023-05-16T15:28:21;17.6;41.7
78694;SHT31;68029;51.978;5.646;2023-05-16T15:30:51;17.6;42.6
78694;SHT31;68029;51.978;5.646;2023-05-16T15:33:21;17.6;42.5
78694;SHT31;68029;51.978;5.646;2023-05-16T15:35:50;17.5;42.4
78694;SHT31;68029;51.978;5.646;2023-05-16T15:38:20;17.5;42.4
78694;SHT31;68029;51.978;5.646;2023-05-16T15:40:49;17.5;42.8
78694;SHT31;68029;51.978;5.646;2023-05-16T15:43:19;17.5;43.1
78694;SHT31;68029;51.978;5.646;2023-05-16T15:45:49;17.4;42.0
78694;SHT31;68029;51.978;5.646;2023-05-16T15:48:18;17.4;42.1
78694;SHT31;68029;51.978;5.646;2023-05-16T15:50:48;17.4;41.8
78694;SHT31;68029;51.978;5.646;2023-05-16T15:53:17;17.4;42.1
78694;SHT31;68029;51.978;5.646;2023-05-16T15:55:47;17.3;42.2
78694;SHT31;68029;51.978;5.646;2023-05-16T15:58:17;17.3;42.6
78694;SHT31;68029;51.978;5.646;2023-05-16T16:00:47;17.3;42.9
78694;SHT31;68029;51.978;5.646;2023-05-16T16:03:17;17.3;43.1
78694;SHT31;68029;51.978;5.646;2023-05-16T16:05:46;17.3;42.5
78694;SHT31;68029;51.978;5.646;2023-05-16T16:08:17;17.4;42.8
78694;SHT31;68029;51.978;5.646;2023-05-16T16:10:47;17.4;43.0
78694;SHT31;68029;51.978;5.646;2023-05-16T16:13:17;17.4;42.4
78694;SHT31;68029;51.978;5.646;2023-05-16T16:15:47;17.5;42.1
78694;SHT31;68029;51.978;5.646;2023-05-16T16:18:17;17.5;42.4
78694;SHT31;68029;51.978;5.646;2023-05-16T16:20:48;17.5;42.2
78694;SHT31;68029;51.978;5.646;2023-05-16T16:23:19;17.5;43.4
78694;SHT31;68029;51.978;5.646;2023-05-16T16:25:48;17.5;43.3